Ailey, GA

9:14 AM EST on December 06, 2016 (GMT -0500)
Oxley Dr., VHS | | Change Station
Active Advisory: Areal Flood Warning

Elev 279 ft 32.23 °N, 82.44 °W | Updated 5 seconds ago

Overcast
Overcast
62.8 °F
Feels Like 62.8 °F
N
0.0
Wind Variable Wind from NE
Gusts 0.0 mph

Today
High -- | Low -- °F
--% Chance of Precip.
Yesterday
High -- | Low -- °F
Precip. -- in
Pressure 29.76 in
Visibility 10.0 miles
Clouds Overcast 300 ft
Dew Point 63 °F
Humidity 99%
Rainfall 1.59 in
Snow Depth Not available.
7:17 AM 5:24 PM
Waxing Crescent, 42% visible
METAR KVDI 061355Z AUTO 00000KT 10SM OVC003 17/17 A2976 RMK AO2
Pressure 29.76 in
Visibility 10.0 miles
Clouds Overcast 300 ft
Dew Point 63 °F
Humidity 99%
Rainfall 1.59 in
Snow Depth Not available.
7:17 AM 5:24 PM
Waxing Crescent, 42% visible
METAR KVDI 061355Z AUTO 00000KT 10SM OVC003 17/17 A2976 RMK AO2

10-Day Weather Forecast

Almanac

Astronomy

Dec. 06, 2016 Rise Set
Actual Time
Civil Twilight
Nautical Twilight
Astronomical Twilight
Moon
Length of Visible Light
Length of Day
Tomorrow will be .
, % of the Moon is Illuminated

Today's Extremes

State Highs State Lows

Community

WunderPhotos

Upload Photos

1,955,949 photos uploaded!

WunderBlog® & News

Nearby

Air Quality

  Air Quality AQ Index Pollutant
Not available.

Snow Depth

Station Depth Elevation

Earthquake Activity

City Distance Mag. Time & Date
Minimum magnitude displayed is 2.5.

Coastal Water Temperatures

Place Temperature

Stations

Nearby Weather Stations

Station Location Temp. Windchill Dew Point Humidity Wind Precip. Elev Updated Type
                   

Watches & Warnings

Areal Flood Warning
Issued: 7:34 AM EST Dec. 6, 2016 – National Weather Service

The National Weather Service in Peachtree City has issued a

* Flood Warning for...
Montgomery County in central Georgia...
southwestern Treutlen County in east central Georgia...
Toombs County in southeastern Georgia...
Wheeler County in central Georgia...
Telfair County in central Georgia...
south central Emanuel County in east central Georgia...

* until 1130 am EST

* at 732 am EST... Doppler radar indicated thunderstorms producing
heavy rain which will cause flooding. Rainfall amounts of 4 to
6 inches of rain have fallen.

Additional rainfall amounts of 1/2 to 1 inch are possible in the
warned area.

Precautionary/preparedness actions...

Turn around... don't drown when encountering flooded roads. Most flood
deaths occur in vehicles.

Please report flooding to your local law enforcement agency when you
can do so safely.

If you see significant flooding... wait until after the storm has
passed... and then call the National Weather Service toll free at 1 8
6 6 7 6 3 4 4 6 6 or tweet US your report at nwsatlanta.


Lat... Lon 3178 8303 3184 8317 3188 8320 3193 8317
      3214 8295 3218 8287 3220 8288 3227 8276
      3232 8273 3235 8224 3217 8218 3191 8223
      3197 8244 3196 8250 3195 8248 3195 8249
      3196 8253 3196 8257 3192 8268 3178 8289